Time;durP1;ratioP1;P1;durP2;ratioP2;P2;SDS_P1;SDS_P2;PMS_P1;PMS_P2;Temp;Humidity;BMP_temperature;BMP_pressure;BME280_temperature;BME280_humidity;BME280_pressure;Samples;Min_cycle;Max_cycle;Signal;HPM_P1;HPM_P2
2023/06/28 00:01:30;;;;;;;3.90;3.70;;;;;;;19.65;100.00;99274.37;91097;1272;139212;-76
2023/06/28 00:03:32;;;;;;;8.40;3.70;;;;;;;19.64;100.00;99273.88;91190;1271;22230;-77
2023/06/28 00:05:33;;;;;;;4.50;4.20;;;;;;;19.60;100.00;99272.55;90998;1271;138135;-79
2023/06/28 00:07:36;;;;;;;3.70;3.50;;;;;;;19.55;100.00;99269.86;91097;1272;22282;-74
2023/06/28 00:09:38;;;;;;;4.00;3.80;;;;;;;19.50;100.00;99263.91;91002;1272;138126;-78
2023/06/28 00:11:39;;;;;;;3.80;3.00;;;;;;;19.49;100.00;99265.48;91118;1272;22568;-77
2023/06/28 00:13:41;;;;;;;4.60;4.20;;;;;;;19.48;100.00;99268.41;91022;1262;138127;-77
2023/06/28 00:15:44;;;;;;;3.70;3.50;;;;;;;19.48;100.00;99269.80;91128;1268;22760;-71
2023/06/28 00:17:45;;;;;;;3.90;3.50;;;;;;;19.45;100.00;99270.46;90995;1276;137904;-79
2023/06/28 00:19:50;;;;;;;4.30;3.60;;;;;;;19.46;100.00;99272.85;91099;1272;22253;-79
2023/06/28 00:21:55;;;;;;;4.60;4.30;;;;;;;19.51;100.00;99275.05;90947;1272;140033;-78
2023/06/28 00:23:57;;;;;;;4.40;3.90;;;;;;;19.51;100.00;99275.16;91116;1266;22367;-77
2023/06/28 00:25:58;;;;;;;3.80;3.50;;;;;;;19.48;100.00;99274.83;91009;1272;137911;-75
2023/06/28 00:28:00;;;;;;;3.40;3.30;;;;;;;19.47;100.00;99272.46;91160;1271;22557;-78
2023/06/28 00:30:01;;;;;;;4.00;3.60;;;;;;;19.52;100.00;99275.31;91000;1272;138149;-78
2023/06/28 00:32:04;;;;;;;3.60;3.40;;;;;;;19.53;100.00;99273.52;90903;1275;138778;-77
2023/06/28 00:34:06;;;;;;;4.60;4.10;;;;;;;19.46;100.00;99274.09;91120;1272;22312;-77
2023/06/28 00:36:07;;;;;;;3.80;3.50;;;;;;;19.45;100.00;99275.16;90964;1262;138424;-77
2023/06/28 00:38:09;;;;;;;3.40;3.20;;;;;;;19.44;100.00;99278.20;91114;1272;22307;-71
2023/06/28 00:40:11;;;;;;;3.10;2.90;;;;;;;19.42;100.00;99278.63;91041;1272;139379;-79
2023/06/28 00:42:13;;;;;;;3.70;3.30;;;;;;;19.42;100.00;99274.86;91105;1272;22233;-77
2023/06/28 00:44:14;;;;;;;2.90;2.80;;;;;;;19.44;100.00;99275.28;91064;1272;138341;-77
2023/06/28 00:46:16;;;;;;;3.60;3.30;;;;;;;19.41;100.00;99277.17;91117;1273;22240;-76
2023/06/28 00:48:18;;;;;;;2.70;2.50;;;;;;;19.43;100.00;99273.84;91086;1272;138460;-72
2023/06/28 00:50:20;;;;;;;2.20;2.00;;;;;;;19.44;100.00;99273.45;90993;1265;22308;-77
2023/06/28 00:52:22;;;;;;;3.90;2.50;;;;;;;19.42;100.00;99274.42;91047;1272;138163;-76
2023/06/28 00:54:24;;;;;;;4.50;2.90;;;;;;;19.36;100.00;99269.77;91064;1271;22519;-72
2023/06/28 00:56:26;;;;;;;6.00;2.90;;;;;;;19.34;100.00;99265.95;91029;1271;139053;-73
2023/06/28 00:58:28;;;;;;;2.60;2.40;;;;;;;19.27;100.00;99260.61;91099;1272;22278;-72
2023/06/28 01:00:29;;;;;;;4.60;2.40;;;;;;;19.25;100.00;99261.80;90968;1272;137956;-78
2023/06/28 01:02:31;;;;;;;2.00;2.00;;;;;;;19.27;100.00;99258.87;91048;1275;22422;-79
2023/06/28 01:04:37;;;;;;;3.30;2.80;;;;;;;19.26;100.00;99251.58;90917;1262;138171;-78
2023/06/28 01:06:41;;;;;;;2.90;2.30;;;;;;;19.27;100.00;99249.79;91109;1272;22089;-81
2023/06/28 01:08:44;;;;;;;5.40;2.40;;;;;;;19.30;100.00;99251.20;91045;1272;138154;-80
2023/06/28 01:10:48;;;;;;;2.80;2.20;;;;;;;19.27;100.00;99250.50;91133;1272;22377;-79
2023/06/28 01:12:50;;;;;;;1.90;1.80;;;;;;;19.27;100.00;99250.06;90999;1272;138969;-78
2023/06/28 01:14:52;;;;;;;2.70;2.50;;;;;;;19.29;100.00;99250.77;91096;1272;22123;-81
2023/06/28 01:16:56;;;;;;;2.60;2.40;;;;;;;19.30;100.00;99253.14;90791;1262;138405;-80
2023/06/28 01:18:58;;;;;;;3.40;3.10;;;;;;;19.27;100.00;99251.52;91107;1272;22443;-76
2023/06/28 01:21:04;;;;;;;4.50;2.40;;;;;;;19.18;100.00;99255.91;91111;1272;138233;-78
2023/06/28 01:23:06;;;;;;;2.10;2.00;;;;;;;19.11;100.00;99259.86;91149;1259;22409;-79
2023/06/28 01:25:09;;;;;;;1.90;1.80;;;;;;;19.10;100.00;99260.67;91064;1272;140491;-66
2023/06/28 01:27:13;;;;;;;2.50;2.40;;;;;;;19.12;100.00;99263.59;91315;1272;21751;-79
2023/06/28 01:29:15;;;;;;;2.00;1.90;;;;;;;19.18;100.00;99265.70;91162;1272;138824;-79
2023/06/28 01:31:17;;;;;;;2.70;2.10;;;;;;;19.25;100.00;99259.86;91213;1272;22222;-77
2023/06/28 01:33:18;;;;;;;1.50;1.40;;;;;;;19.25;100.00;99260.77;90993;1271;138196;-80
2023/06/28 01:35:20;;;;;;;2.20;2.10;;;;;;;19.24;100.00;99264.66;91110;1272;22319;-80
2023/06/28 01:37:23;;;;;;;5.40;1.90;;;;;;;19.30;100.00;99266.16;91040;1272;139105;-74
2023/06/28 01:39:26;;;;;;;2.20;2.10;;;;;;;19.34;100.00;99268.54;91070;1268;22631;-80
2023/06/28 01:41:28;;;;;;;5.70;2.80;;;;;;;19.31;100.00;99268.27;91037;1271;138937;-81
2023/06/28 01:43:30;;;;;;;3.60;2.70;;;;;;;19.32;100.00;99266.48;91070;1272;22367;-68
2023/06/28 01:45:35;;;;;;;1.70;1.60;;;;;;;19.36;100.00;99265.29;91054;1272;139715;-80
2023/06/28 01:47:38;;;;;;;2.20;1.80;;;;;;;19.39;100.00;99260.75;91200;1260;22325;-81
2023/06/28 01:49:40;;;;;;;2.30;1.70;;;;;;;19.43;100.00;99255.49;91238;1268;139333;-81
2023/06/28 01:51:42;;;;;;;2.30;2.10;;;;;;;19.43;100.00;99252.36;91367;1271;22325;-75
2023/06/28 01:53:45;;;;;;;2.00;1.70;;;;;;;19.42;100.00;99258.25;91271;1272;138172;-79
2023/06/28 01:55:48;;;;;;;1.80;1.70;;;;;;;19.35;100.00;99258.86;91126;1275;22218;-78
2023/06/28 01:57:49;;;;;;;3.70;1.80;;;;;;;19.32;100.00;99259.46;90950;1271;138726;-77
2023/06/28 01:59:51;;;;;;;1.80;1.70;;;;;;;19.36;100.00;99262.21;91165;1272;22268;-81
2023/06/28 02:01:57;;;;;;;1.40;1.30;;;;;;;19.35;100.00;99265.08;91029;1272;139021;-77
2023/06/28 02:03:59;;;;;;;1.00;1.00;;;;;;;19.37;100.00;99262.27;91138;1278;22266;-64
2023/06/28 02:06:00;;;;;;;1.90;1.60;;;;;;;19.42;100.00;99260.31;90951;1272;139154;-77
2023/06/28 02:08:02;;;;;;;3.00;1.80;;;;;;;19.42;100.00;99259.55;90979;1260;139308;-72
2023/06/28 02:10:05;;;;;;;4.40;1.80;;;;;;;19.32;100.00;99253.20;91184;1272;22095;-64
2023/06/28 02:12:06;;;;;;;3.60;2.00;;;;;;;19.28;100.00;99256.98;91001;1262;138481;-81
2023/06/28 02:14:08;;;;;;;2.70;1.90;;;;;;;19.23;100.00;99255.10;91178;1272;22302;-75
2023/06/28 02:16:10;;;;;;;2.20;1.70;;;;;;;19.21;100.00;99256.13;90997;1274;139794;-79
2023/06/28 02:18:16;;;;;;;2.60;1.60;;;;;;;19.18;100.00;99261.32;91152;1276;22284;-78
2023/06/28 02:20:19;;;;;;;4.20;1.80;;;;;;;19.15;100.00;99263.91;90907;1275;139321;-80
2023/06/28 02:22:20;;;;;;;2.90;1.70;;;;;;;19.15;100.00;99264.95;91034;1272;22347;-79
2023/06/28 02:24:22;;;;;;;3.10;1.80;;;;;;;19.15;100.00;99264.23;91058;1273;139296;-79
2023/06/28 02:26:24;;;;;;;4.50;1.50;;;;;;;19.19;100.00;99263.91;91146;1275;22138;-77
2023/06/28 02:28:25;;;;;;;2.50;1.60;;;;;;;19.17;100.00;99269.54;90981;1272;138285;-80
2023/06/28 02:30:27;;;;;;;3.10;1.20;;;;;;;19.15;100.00;99268.56;91123;1271;22938;-81
2023/06/28 02:32:33;;;;;;;2.10;1.80;;;;;;;19.11;100.00;99268.99;91031;1273;139889;-79
2023/06/28 02:34:35;;;;;;;3.20;1.90;;;;;;;19.06;100.00;99271.58;91041;1274;22295;-80
2023/06/28 02:36:36;;;;;;;1.20;1.10;;;;;;;19.00;100.00;99274.38;91028;1275;138017;-79
2023/06/28 02:38:38;;;;;;;0.90;0.80;;;;;;;18.97;100.00;99274.88;91137;1272;22277;-76
2023/06/28 02:40:40;;;;;;;2.10;1.60;;;;;;;18.96;100.00;99275.05;91031;1272;138972;-80
2023/06/28 02:42:42;;;;;;;1.30;1.20;;;;;;;18.95;100.00;99274.55;90966;1271;22337;-80
2023/06/28 02:44:44;;;;;;;2.30;1.20;;;;;;;18.92;100.00;99276.13;90926;1270;139890;-79
2023/06/28 02:46:45;;;;;;;4.90;1.30;;;;;;;18.91;100.00;99277.52;91032;1273;23110;-76
2023/06/28 02:48:48;;;;;;;2.70;1.60;;;;;;;18.90;100.00;99279.84;90972;1272;138277;-77
2023/06/28 02:50:50;;;;;;;2.90;1.90;;;;;;;18.89;100.00;99279.95;91009;1275;22417;-78
2023/06/28 02:52:51;;;;;;;4.00;1.80;;;;;;;18.88;100.00;99281.09;90979;1262;139391;-80
2023/06/28 02:54:53;;;;;;;2.30;1.80;;;;;;;18.90;100.00;99283.94;91044;1262;22580;-76
2023/06/28 02:56:55;;;;;;;1.40;1.30;;;;;;;18.91;100.00;99281.73;91004;1276;138698;-72
2023/06/28 02:59:20;;;;;;;1.40;1.30;;;;;;;18.82;100.00;99271.63;90898;1273;22210;-77
2023/06/28 03:01:24;;;;;;;2.70;1.50;;;;;;;18.82;100.00;99279.56;90955;1273;139487;-71
2023/06/28 03:03:26;;;;;;;2.40;2.20;;;;;;;18.78;100.00;99274.02;91171;1272;22432;-74
2023/06/28 03:05:27;;;;;;;4.10;1.30;;;;;;;18.77;100.00;99274.77;91145;1259;137995;-74
2023/06/28 03:07:29;;;;;;;3.90;1.60;;;;;;;18.76;100.00;99275.73;91271;1275;22364;-73
2023/06/28 03:09:31;;;;;;;2.10;1.80;;;;;;;18.71;100.00;99279.95;90922;1262;138260;-69
2023/06/28 03:11:35;;;;;;;4.00;2.00;;;;;;;18.64;100.00;99284.55;91041;1275;22228;-64
2023/06/28 03:13:37;;;;;;;2.70;1.80;;;;;;;18.59;100.00;99284.52;90878;1278;139320;-66
2023/06/28 03:15:39;;;;;;;3.50;1.40;;;;;;;18.58;100.00;99287.05;90966;1277;23240;-65
2023/06/28 03:17:41;;;;;;;4.50;1.90;;;;;;;18.60;100.00;99289.44;90790;1275;139542;-64
2023/06/28 03:19:44;;;;;;;5.60;1.60;;;;;;;18.59;100.00;99293.59;90957;1276;22796;-65
2023/06/28 03:21:46;;;;;;;2.70;1.30;;;;;;;18.57;100.00;99294.71;90870;1275;138529;-65
2023/06/28 03:23:47;;;;;;;2.70;2.10;;;;;;;18.55;100.00;99301.13;90962;1276;22221;-66
2023/06/28 03:25:49;;;;;;;2.70;1.50;;;;;;;18.52;100.00;99307.29;90803;1275;139780;-63
2023/06/28 03:27:51;;;;;;;1.80;1.50;;;;;;;18.44;100.00;99299.17;90953;1269;22244;-63
2023/06/28 03:29:52;;;;;;;2.30;1.90;;;;;;;18.39;100.00;99297.36;90942;1276;138439;-63
2023/06/28 03:31:55;;;;;;;4.50;1.60;;;;;;;18.38;100.00;99297.41;90995;1275;22262;-64
2023/06/28 03:33:57;;;;;;;1.70;1.60;;;;;;;18.36;100.00;99297.96;90818;1275;138035;-66
2023/06/28 03:35:59;;;;;;;1.70;1.50;;;;;;;18.34;100.00;99301.17;90956;1274;22996;-68
2023/06/28 03:38:01;;;;;;;6.60;2.10;;;;;;;18.31;100.00;99304.41;90786;1275;138433;-63
2023/06/28 03:40:04;;;;;;;3.10;1.80;;;;;;;18.26;100.00;99303.58;90830;1263;139062;-65
2023/06/28 03:42:06;;;;;;;1.80;1.40;;;;;;;18.24;100.00;99300.98;90922;1275;22316;-64
2023/06/28 03:44:08;;;;;;;4.70;1.90;;;;;;;18.24;100.00;99298.67;90765;1275;139450;-67
2023/06/28 03:46:10;;;;;;;1.60;1.50;;;;;;;18.23;100.00;99299.58;90882;1275;22199;-64
2023/06/28 03:48:12;;;;;;;5.60;1.40;;;;;;;18.19;100.00;99296.92;90935;1274;139308;-64
2023/06/28 03:50:15;;;;;;;8.40;2.60;;;;;;;18.15;100.00;99299.82;90932;1275;23068;-64
2023/06/28 03:52:16;;;;;;;3.80;1.90;;;;;;;18.09;100.00;99303.30;90865;1278;139433;-65
2023/06/28 03:54:18;;;;;;;2.40;1.60;;;;;;;18.04;100.00;99302.25;90952;1272;23013;-65
2023/06/28 03:56:22;;;;;;;2.30;1.60;;;;;;;18.02;100.00;99303.75;90818;1275;138537;-64
2023/06/28 03:58:24;;;;;;;6.00;1.60;;;;;;;18.00;100.00;99309.45;90934;1276;22931;-64
2023/06/28 04:00:25;;;;;;;2.20;1.60;;;;;;;18.00;100.00;99309.84;90819;1275;138710;-64
2023/06/28 04:02:27;;;;;;;3.30;1.40;;;;;;;18.02;100.00;99307.36;90870;1275;22334;-64
2023/06/28 04:04:29;;;;;;;2.90;1.70;;;;;;;17.98;100.00;99298.44;90736;1275;139279;-64
2023/06/28 04:06:30;;;;;;;2.70;1.30;;;;;;;18.03;100.00;99307.20;90983;1275;22522;-63
2023/06/28 04:08:32;;;;;;;3.40;1.20;;;;;;;18.04;100.00;99307.86;90749;1275;139516;-64
2023/06/28 04:10:33;;;;;;;3.60;1.10;;;;;;;18.10;100.00;99302.70;90815;1275;23308;-69
2023/06/28 04:12:35;;;;;;;1.90;0.90;;;;;;;18.19;100.00;99305.28;90837;1275;138024;-66
2023/06/28 04:14:37;;;;;;;2.30;1.20;;;;;;;18.36;100.00;99298.71;90896;1273;22323;-64
2023/06/28 04:16:39;;;;;;;3.50;1.80;;;;;;;18.62;100.00;99300.92;90685;1262;139475;-68
2023/06/28 04:18:41;;;;;;;1.40;1.10;;;;;;;18.88;100.00;99297.33;90888;1276;23020;-64
2023/06/28 04:20:43;;;;;;;2.10;1.30;;;;;;;19.12;100.00;99301.46;90811;1275;138633;-64
2023/06/28 04:22:45;;;;;;;3.30;1.10;;;;;;;19.37;100.00;99297.39;90918;1275;22194;-66
2023/06/28 04:24:46;;;;;;;1.30;1.20;;;;;;;19.73;100.00;99296.97;90744;1273;138114;-64
2023/06/28 04:26:48;;;;;;;1.70;1.30;;;;;;;20.24;97.59;99296.69;90881;1275;22405;-64
2023/06/28 04:28:50;;;;;;;1.60;1.00;;;;;;;20.83;95.93;99289.35;90783;1276;137393;-65
2023/06/28 04:30:52;;;;;;;2.30;0.70;;;;;;;21.44;92.34;99289.83;90926;1276;22223;-67
2023/06/28 04:32:53;;;;;;;1.10;1.00;;;;;;;22.06;88.32;99285.72;90733;1275;137372;-64
2023/06/28 04:34:59;;;;;;;2.00;1.10;;;;;;;22.47;84.23;99286.73;90883;1263;22245;-65
2023/06/28 04:37:00;;;;;;;3.30;1.30;;;;;;;22.63;82.99;99286.73;90759;1274;137280;-65
2023/06/28 04:39:05;;;;;;;1.70;0.90;;;;;;;22.49;83.05;99293.18;90973;1274;23184;-67
2023/06/28 04:41:07;;;;;;;1.00;0.90;;;;;;;22.11;83.21;99286.68;90832;1275;137177;-66
2023/06/28 04:43:09;;;;;;;2.20;0.80;;;;;;;21.81;84.10;99290.45;90918;1276;22475;-65
2023/06/28 04:45:11;;;;;;;2.30;0.80;;;;;;;21.63;84.50;99303.21;90820;1275;138398;-65
2023/06/28 04:47:15;;;;;;;4.60;1.50;;;;;;;21.32;85.64;99306.23;90937;1275;23099;-67
2023/06/28 04:49:17;;;;;;;4.50;1.30;;;;;;;20.95;87.16;99304.21;90781;1279;137640;-65
2023/06/28 04:51:20;;;;;;;2.20;1.30;;;;;;;20.68;89.59;99305.80;90952;1275;23024;-65
2023/06/28 04:53:22;;;;;;;4.00;3.50;;;;;;;20.45;90.18;99309.10;90822;1274;137103;-65
2023/06/28 04:55:23;;;;;;;4.40;4.00;;;;;;;20.22;91.32;99311.86;90983;1274;22391;-65
2023/06/28 04:57:25;;;;;;;10.10;9.10;;;;;;;20.03;92.78;99313.34;90821;1275;138342;-66
2023/06/28 04:59:26;;;;;;;6.70;6.20;;;;;;;19.92;93.75;99314.62;90935;1276;22300;-65
2023/06/28 05:01:28;;;;;;;6.50;3.40;;;;;;;19.89;94.52;99316.69;90811;1274;140872;-65
2023/06/28 05:03:30;;;;;;;5.50;5.00;;;;;;;19.90;94.27;99310.89;90951;1275;22326;-63
2023/06/28 05:05:31;;;;;;;1.60;1.40;;;;;;;19.93;93.87;99310.71;90821;1274;140443;-66
2023/06/28 05:07:33;;;;;;;2.50;2.20;;;;;;;20.01;94.11;99314.43;90946;1275;22336;-64
2023/06/28 05:09:36;;;;;;;1.90;1.70;;;;;;;20.19;93.94;99316.84;90789;1275;139889;-65
2023/06/28 05:11:38;;;;;;;4.60;4.30;;;;;;;20.55;92.68;99310.58;90927;1274;22312;-65
2023/06/28 05:13:41;;;;;;;4.50;4.10;;;;;;;20.83;88.93;99307.00;90891;1274;137577;-65
2023/06/28 05:15:42;;;;;;;2.20;2.10;;;;;;;21.06;87.27;99314.05;90946;1275;23021;-66
2023/06/28 05:17:44;;;;;;;1.70;0.90;;;;;;;21.17;85.41;99310.16;90801;1274;137312;-66
2023/06/28 05:19:46;;;;;;;3.30;0.80;;;;;;;21.27;82.69;99314.41;90927;1276;23092;-66
2023/06/28 05:21:48;;;;;;;3.00;1.30;;;;;;;21.27;82.00;99314.86;90843;1275;138551;-65
2023/06/28 05:23:50;;;;;;;2.60;1.40;;;;;;;21.32;84.09;99310.41;90954;1275;22967;-66
2023/06/28 05:25:51;;;;;;;1.30;1.20;;;;;;;21.57;82.72;99308.20;90803;1275;137822;-64
2023/06/28 05:27:53;;;;;;;3.40;1.60;;;;;;;21.58;81.66;99296.80;90966;1275;22132;-65
2023/06/28 05:29:55;;;;;;;0.40;0.40;;;;;;;21.67;81.22;99301.88;90864;1275;137074;-66
2023/06/28 05:31:56;;;;;;;6.10;2.50;;;;;;;21.73;80.40;99309.35;90950;1275;22400;-64
2023/06/28 05:33:58;;;;;;;2.90;0.80;;;;;;;21.73;79.34;99306.15;90734;1265;137098;-65
2023/06/28 05:35:59;;;;;;;3.50;0.50;;;;;;;21.59;79.47;99308.56;90954;1276;22775;-65
2023/06/28 05:38:03;;;;;;;0.80;0.70;;;;;;;21.50;80.78;99313.76;90849;1274;137194;-59
2023/06/28 05:40:05;;;;;;;1.10;1.00;;;;;;;21.45;81.14;99316.02;90855;1274;138468;-60
2023/06/28 05:42:07;;;;;;;1.50;0.50;;;;;;;21.38;78.74;99318.06;90979;1275;22304;-61
2023/06/28 05:44:09;;;;;;;3.10;0.50;;;;;;;21.22;79.40;99324.54;90850;1275;137871;-60
2023/06/28 05:46:11;;;;;;;0.60;0.40;;;;;;;21.11;79.77;99328.42;90950;1275;22517;-60
2023/06/28 05:48:14;;;;;;;2.30;0.40;;;;;;;21.08;79.69;99329.20;90798;1271;138192;-60
2023/06/28 05:50:18;;;;;;;2.40;0.30;;;;;;;21.24;80.81;99323.59;90958;1276;22357;-59
2023/06/28 05:52:20;;;;;;;2.20;0.30;;;;;;;21.39;79.10;99310.11;90828;1275;138667;-60
2023/06/28 05:54:21;;;;;;;3.50;0.70;;;;;;;21.58;78.80;99320.94;90939;1278;22306;-59
2023/06/28 05:56:24;;;;;;;5.60;0.20;;;;;;;21.71;78.39;99323.86;90774;1275;138439;-58
2023/06/28 05:58:25;;;;;;;2.80;1.20;;;;;;;21.82;76.27;99327.05;90933;1276;22328;-59
2023/06/28 06:00:27;;;;;;;2.00;1.70;;;;;;;21.81;76.20;99328.48;90879;1275;138002;-59
2023/06/28 06:02:29;;;;;;;1.00;0.50;;;;;;;21.73;74.30;99323.40;90950;1275;22344;-61
2023/06/28 06:04:31;;;;;;;0.70;0.40;;;;;;;21.71;74.01;99323.85;90797;1275;137347;-60
2023/06/28 06:06:33;;;;;;;3.10;2.90;;;;;;;21.64;74.49;99327.24;90973;1275;23204;-60
2023/06/28 06:08:34;;;;;;;1.60;0.40;;;;;;;21.68;75.08;99335.50;90881;1274;138213;-59
2023/06/28 06:10:36;;;;;;;2.90;2.40;;;;;;;21.76;73.10;99330.48;90965;1275;22326;-59
2023/06/28 06:12:38;;;;;;;4.10;1.00;;;;;;;21.92;73.62;99321.73;90809;1275;138119;-60
2023/06/28 06:14:40;;;;;;;3.30;3.00;;;;;;;22.24;72.36;99327.73;90945;1275;22354;-59
2023/06/28 06:16:41;;;;;;;3.20;0.40;;;;;;;22.57;69.92;99329.17;90808;1277;140520;-58
2023/06/28 06:18:43;;;;;;;2.30;0.20;;;;;;;22.78;67.59;99327.95;90962;1275;22133;-59
2023/06/28 06:20:45;;;;;;;3.60;0.60;;;;;;;22.84;67.97;99323.46;90806;1275;137992;-60
2023/06/28 06:22:47;;;;;;;0.40;0.20;;;;;;;22.91;67.81;99323.58;90965;1275;23299;-60
2023/06/28 06:24:48;;;;;;;0.80;0.30;;;;;;;22.93;67.13;99300.61;90823;1275;137632;-59
2023/06/28 06:26:50;;;;;;;1.50;1.20;;;;;;;23.05;66.42;99314.63;90954;1277;22211;-60
2023/06/28 06:28:52;;;;;;;2.40;0.20;;;;;;;23.16;68.30;99323.27;90854;1275;137293;-61
2023/06/28 06:30:54;;;;;;;0.20;0.20;;;;;;;23.40;65.68;99323.20;90895;1275;23058;-60
2023/06/28 06:32:55;;;;;;;0.30;0.20;;;;;;;23.48;63.61;99317.02;90834;1274;139011;-59
2023/06/28 06:34:57;;;;;;;1.70;0.60;;;;;;;23.40;64.22;99322.01;90958;1275;22872;-60
2023/06/28 06:36:59;;;;;;;0.60;0.20;;;;;;;23.39;65.14;99325.40;90863;1274;137310;-60
2023/06/28 06:39:03;;;;;;;1.00;0.30;;;;;;;23.40;62.78;99332.99;90812;1276;22872;-60
2023/06/28 06:41:05;;;;;;;1.40;0.40;;;;;;;23.33;63.58;99328.33;90831;1275;138579;-61
2023/06/28 06:43:07;;;;;;;0.60;0.60;;;;;;;23.28;63.95;99326.27;90977;1275;22399;-63
2023/06/28 06:45:09;;;;;;;3.20;1.40;;;;;;;23.27;64.18;99328.97;90808;1263;137536;-59
2023/06/28 06:47:10;;;;;;;2.70;1.30;;;;;;;23.28;64.13;99324.59;90965;1275;23090;-59
2023/06/28 06:49:12;;;;;;;2.10;1.10;;;;;;;23.31;64.83;99335.52;90840;1275;139058;-59
2023/06/28 06:51:15;;;;;;;0.50;0.40;;;;;;;23.43;64.05;99339.95;91008;1274;23079;-60
2023/06/28 06:53:17;;;;;;;2.60;0.40;;;;;;;23.51;63.45;99345.73;90835;1277;137591;-59
2023/06/28 06:55:18;;;;;;;1.50;0.40;;;;;;;23.49;62.70;99349.70;90961;1275;22354;-59
2023/06/28 06:57:21;;;;;;;0.50;0.10;;;;;;;23.34;62.77;99353.00;90855;1275;138233;-60
2023/06/28 06:59:26;;;;;;;0.30;0.20;;;;;;;23.11;63.97;99351.40;91001;1275;22212;-60
2023/06/28 07:01:32;;;;;;;0.50;0.40;;;;;;;23.00;65.70;99353.02;90794;1272;137433;-60
2023/06/28 07:03:34;;;;;;;2.10;0.30;;;;;;;22.98;65.07;99354.72;90911;1275;22651;-60
2023/06/28 07:05:35;;;;;;;2.10;0.30;;;;;;;23.00;65.84;99352.14;90846;1275;138268;-60
2023/06/28 07:07:37;;;;;;;1.80;0.50;;;;;;;23.07;63.92;99359.73;90993;1274;22395;-60
2023/06/28 07:09:39;;;;;;;0.20;0.10;;;;;;;23.08;63.42;99363.99;90897;1275;137319;-60
2023/06/28 07:11:41;;;;;;;0.10;0.10;;;;;;;22.99;64.16;99357.88;90936;1275;22308;-59
2023/06/28 07:13:43;;;;;;;0.80;0.20;;;;;;;23.11;64.78;99366.88;90888;1276;137415;-59
2023/06/28 07:15:44;;;;;;;0.40;0.20;;;;;;;23.29;62.91;99372.15;90920;1275;22311;-61
2023/06/28 07:17:46;;;;;;;0.90;0.30;;;;;;;23.37;62.43;99361.43;90740;1275;139370;-60
2023/06/28 07:19:48;;;;;;;3.80;3.30;;;;;;;23.39;62.31;99362.16;90980;1275;22916;-59
2023/06/28 07:21:50;;;;;;;1.00;0.60;;;;;;;23.38;61.52;99351.18;90811;1260;137271;-59
2023/06/28 07:23:54;;;;;;;0.30;0.20;;;;;;;23.38;61.35;99362.39;90959;1275;23117;-60
2023/06/28 07:25:55;;;;;;;2.90;0.30;;;;;;;23.35;61.27;99368.20;90876;1275;136970;-60
2023/06/28 07:27:57;;;;;;;1.00;0.30;;;;;;;23.27;60.81;99370.16;90986;1275;23370;-60
2023/06/28 07:30:01;;;;;;;1.20;0.70;;;;;;;23.08;61.33;99370.62;90860;1275;138565;-59
2023/06/28 07:32:03;;;;;;;1.40;0.90;;;;;;;22.94;62.59;99368.85;90800;1274;141824;-60
2023/06/28 07:34:06;;;;;;;0.70;0.20;;;;;;;22.89;62.47;99364.36;90966;1276;22344;-60
2023/06/28 07:36:08;;;;;;;0.90;0.60;;;;;;;22.89;61.83;99362.02;90858;1275;137268;-60
2023/06/28 07:38:09;;;;;;;1.20;0.20;;;;;;;22.89;62.37;99359.36;90922;1275;23116;-60
2023/06/28 07:40:13;;;;;;;0.40;0.10;;;;;;;22.93;62.20;99365.67;90837;1275;137818;-60
2023/06/28 07:42:15;;;;;;;0.20;0.10;;;;;;;22.92;62.01;99365.84;90902;1275;23104;-59
2023/06/28 07:44:17;;;;;;;1.80;1.70;;;;;;;22.87;61.49;99364.71;90767;1261;137893;-59
2023/06/28 07:46:18;;;;;;;0.40;0.40;;;;;;;22.81;63.19;99366.27;90968;1276;23025;-61
2023/06/28 07:48:20;;;;;;;0.70;0.10;;;;;;;22.83;62.31;99360.27;90829;1274;139556;-60
2023/06/28 07:50:23;;;;;;;1.00;0.30;;;;;;;22.80;61.82;99361.83;90716;1275;329255;-60
2023/06/28 07:53:55;;;;;;;2.80;0.20;;;;;;;22.60;62.53;99360.74;85349;1303;544976;-63
2023/06/28 07:55:57;;;;;;;0.30;0.30;;;;;;;22.53;61.38;99360.14;87256;1284;22597;-61
2023/06/28 07:57:58;;;;;;;0.60;0.50;;;;;;;22.45;62.38;99353.92;87167;1285;138274;-59
2023/06/28 08:00:00;;;;;;;0.30;0.30;;;;;;;22.44;62.45;99360.73;90450;1285;22357;-60
2023/06/28 08:02:02;;;;;;;0.20;0.20;;;;;;;22.48;63.21;99354.48;90204;1287;137780;-59
2023/06/28 08:04:03;;;;;;;1.00;0.20;;;;;;;22.52;62.97;99354.98;90398;1284;137290;-59
2023/06/28 08:06:05;;;;;;;0.50;0.20;;;;;;;22.56;63.72;99360.46;90352;1284;22322;-58
2023/06/28 08:08:07;;;;;;;3.80;0.70;;;;;;;22.52;63.26;99365.78;90318;1282;137345;-59
2023/06/28 08:10:09;;;;;;;1.00;0.30;;;;;;;22.36;63.08;99358.33;90580;1283;22342;-60
2023/06/28 08:12:11;;;;;;;2.40;1.30;;;;;;;22.12;62.77;99356.05;90219;1284;138459;-62
2023/06/28 08:14:13;;;;;;;3.10;0.20;;;;;;;21.93;63.22;99361.61;90337;1284;22355;-60
2023/06/28 08:16:14;;;;;;;2.90;0.20;;;;;;;21.79;63.18;99365.88;90342;1283;140069;-60
2023/06/28 08:18:17;;;;;;;0.30;0.30;;;;;;;21.71;63.63;99366.98;90610;1281;22248;-62
2023/06/28 08:20:19;;;;;;;0.90;0.20;;;;;;;21.70;64.31;99363.78;90417;1281;138521;-61
2023/06/28 08:22:20;;;;;;;1.00;0.20;;;;;;;21.74;64.34;99364.63;90535;1281;23287;-60
2023/06/28 08:24:22;;;;;;;1.30;0.10;;;;;;;21.79;65.57;99366.25;90419;1283;137539;-61
2023/06/28 08:26:24;;;;;;;0.90;0.20;;;;;;;21.81;64.95;99353.42;90511;1283;22553;-59
2023/06/28 08:28:25;;;;;;;1.50;0.20;;;;;;;21.86;63.37;99356.20;90490;1283;137828;-61
2023/06/28 08:30:27;;;;;;;2.10;0.20;;;;;;;21.93;63.08;99364.75;90355;1285;22373;-60
2023/06/28 08:32:29;;;;;;;1.60;0.20;;;;;;;21.94;62.77;99362.20;90463;1282;137797;-60
2023/06/28 08:34:30;;;;;;;1.00;0.40;;;;;;;21.92;63.00;99362.77;90521;1283;22337;-77
2023/06/28 08:36:32;;;;;;;1.30;0.20;;;;;;;21.87;63.03;99360.52;90448;1283;138209;-66
2023/06/28 08:38:33;;;;;;;1.00;0.20;;;;;;;21.77;62.07;99360.20;90543;1282;22348;-67
2023/06/28 08:40:35;;;;;;;1.00;1.00;;;;;;;21.62;61.87;99359.63;90436;1282;137771;-65
2023/06/28 08:42:40;;;;;;;0.20;0.20;;;;;;;21.48;63.42;99363.00;90465;1283;22238;-65
2023/06/28 08:44:42;;;;;;;1.60;0.30;;;;;;;21.44;63.43;99365.03;90475;1283;138359;-64
2023/06/28 08:46:46;;;;;;;0.70;0.20;;;;;;;21.42;64.15;99365.63;90565;1283;22978;-66
2023/06/28 08:48:48;;;;;;;1.90;0.30;;;;;;;21.44;64.29;99371.98;90246;1282;136937;-71
2023/06/28 08:50:51;;;;;;;0.60;0.20;;;;;;;21.49;64.11;99360.23;90456;1270;22341;-67
2023/06/28 08:52:53;;;;;;;0.90;0.20;;;;;;;21.55;62.72;99355.73;90392;1273;137029;-67
2023/06/28 08:54:57;;;;;;;0.60;0.10;;;;;;;21.52;61.26;99354.84;90544;1282;22125;-67
2023/06/28 08:57:00;;;;;;;0.60;0.30;;;;;;;21.43;61.33;99357.33;90469;1281;137511;-66
2023/06/28 08:59:05;;;;;;;4.50;0.20;;;;;;;21.35;61.24;99359.19;90506;1283;22492;-65
2023/06/28 09:01:12;;;;;;;2.20;0.10;;;;;;;21.32;61.80;99355.20;90372;1284;137940;-65
2023/06/28 09:03:15;;;;;;;0.50;0.30;;;;;;;21.35;62.52;99362.75;90552;1284;22330;-66
2023/06/28 09:05:19;;;;;;;7.10;1.20;;;;;;;21.38;62.50;99362.02;90497;1283;137172;-67
2023/06/28 09:07:22;;;;;;;1.50;0.10;;;;;;;21.43;63.11;99365.73;90579;1267;22435;-66
2023/06/28 09:09:26;;;;;;;0.40;0.30;;;;;;;21.50;63.74;99363.15;90455;1282;136794;-69
2023/06/28 09:11:28;;;;;;;1.20;0.10;;;;;;;21.62;63.62;99359.14;90560;1283;23227;-65
2023/06/28 09:13:30;;;;;;;0.30;0.10;;;;;;;21.72;61.59;99356.29;90484;1283;136995;-66
2023/06/28 09:15:34;;;;;;;0.30;0.20;;;;;;;21.80;61.95;99354.84;90593;1283;22434;-67
2023/06/28 09:17:36;;;;;;;0.60;0.20;;;;;;;21.93;60.02;99348.97;90445;1282;136960;-66
2023/06/28 09:19:38;;;;;;;0.50;0.30;;;;;;;22.12;59.13;99346.10;90614;1283;22247;-68
2023/06/28 09:21:41;;;;;;;3.10;0.20;;;;;;;22.31;57.95;99342.48;90962;1271;137317;-68
2023/06/28 09:23:42;;;;;;;1.20;0.10;;;;;;;22.50;55.32;99346.15;90965;1264;22272;-66
2023/06/28 09:25:44;;;;;;;0.80;0.10;;;;;;;22.62;53.89;99348.66;90976;1271;138578;-67
2023/06/28 09:27:45;;;;;;;0.10;0.10;;;;;;;22.64;54.22;99349.00;91080;1271;22298;-69
2023/06/28 09:30:07;;;;;;;0.30;0.10;;;;;;;22.64;53.58;99353.08;91089;1270;22235;-66